Time;durP1;ratioP1;P1;durP2;ratioP2;P2;SDS_P1;SDS_P2;PMS_P1;PMS_P2;Temp;Humidity;BMP_temperature;BMP_pressure;BME280_temperature;BME280_humidity;BME280_pressure;Samples;Min_cycle;Max_cycle;Signal;HPM_P1;HPM_P2
2021/11/24 00:00:05;;;;;;;31.90;22.30;;;;;;;5.65;100.00;102620.59;2091348;28;20033;-67
2021/11/24 00:01:06;;;;;;;29.83;22.05;;;;;;;5.64;100.00;102611.94;2091377;28;20028;-68
2021/11/24 00:02:06;;;;;;;32.88;21.50;;;;;;;5.69;100.00;102611.13;2091279;28;20514;-67
2021/11/24 00:03:07;;;;;;;30.00;21.90;;;;;;;5.71;100.00;102604.22;2090692;28;20052;-69
2021/11/24 00:04:07;;;;;;;27.10;20.80;;;;;;;5.72;100.00;102600.78;2090713;28;20498;-68
2021/11/24 00:05:07;;;;;;;28.07;19.73;;;;;;;5.71;100.00;102599.06;2091292;28;20024;-68
2021/11/24 00:06:08;;;;;;;27.17;21.45;;;;;;;5.69;100.00;102605.94;2090625;28;20540;-69
2021/11/24 00:07:08;;;;;;;25.13;19.60;;;;;;;5.69;100.00;102605.94;2090750;28;20025;-68
2021/11/24 00:08:09;;;;;;;25.80;19.73;;;;;;;5.70;100.00;102605.06;2091205;28;20021;-67
2021/11/24 00:09:09;;;;;;;26.43;19.80;;;;;;;5.69;100.00;102601.63;2090561;28;20028;-68
2021/11/24 00:10:11;;;;;;;28.37;20.23;;;;;;;5.68;100.00;102605.06;2090566;28;20036;-68
2021/11/24 00:11:12;;;;;;;26.73;20.15;;;;;;;5.69;100.00;102611.13;2090584;28;20071;-68
2021/11/24 00:12:12;;;;;;;28.93;21.23;;;;;;;5.67;100.00;102604.22;2091352;28;20063;-68
2021/11/24 00:13:12;;;;;;;25.13;20.23;;;;;;;5.69;100.00;102603.34;2090506;28;20100;-67
2021/11/24 00:14:13;;;;;;;28.20;21.37;;;;;;;5.70;100.00;102603.34;2090473;28;20025;-68
2021/11/24 00:15:14;;;;;;;28.00;19.50;;;;;;;5.73;100.00;102602.50;2091181;28;20037;-67
2021/11/24 00:16:14;;;;;;;27.25;21.08;;;;;;;5.74;100.00;102601.63;2091178;28;20379;-67
2021/11/24 00:17:16;;;;;;;31.10;22.00;;;;;;;5.75;100.00;102593.88;2091186;28;20027;-68
2021/11/24 00:18:16;;;;;;;24.85;19.45;;;;;;;5.76;100.00;102602.53;2091188;28;20029;-67
2021/11/24 00:19:17;;;;;;;29.37;19.77;;;;;;;5.75;100.00;102601.66;2091191;28;20021;-68
2021/11/24 00:20:17;;;;;;;28.37;20.13;;;;;;;5.73;100.00;102602.50;2091137;28;20497;-68
2021/11/24 00:21:21;;;;;;;25.73;19.70;;;;;;;5.72;100.00;102600.78;2090520;28;20096;-68
2021/11/24 00:22:21;;;;;;;31.25;21.45;;;;;;;5.71;100.00;102604.22;2090505;28;20025;-67
2021/11/24 00:23:21;;;;;;;22.92;20.08;;;;;;;5.70;100.00;102605.94;2090464;28;20551;-68
2021/11/24 00:24:22;;;;;;;26.90;20.87;;;;;;;5.71;100.00;102601.66;2090493;28;20044;-68
2021/11/24 00:25:22;;;;;;;23.27;19.17;;;;;;;5.70;100.00;102597.28;2091168;28;20033;-68
2021/11/24 00:26:22;;;;;;;26.97;21.83;;;;;;;5.69;100.00;102600.75;2091112;28;20467;-67
2021/11/24 00:27:23;;;;;;;28.53;21.00;;;;;;;5.67;100.00;102591.25;2090247;28;20052;-67
2021/11/24 00:28:23;;;;;;;27.17;20.43;;;;;;;5.66;100.00;102599.91;2090463;28;20482;-68
2021/11/24 00:29:23;;;;;;;28.53;20.43;;;;;;;5.66;100.00;102599.00;2091138;28;20037;-68
2021/11/24 00:30:24;;;;;;;25.37;20.07;;;;;;;5.63;100.00;102597.28;2091111;28;20033;-68
2021/11/24 00:31:24;;;;;;;23.73;21.03;;;;;;;5.59;100.00;102597.22;2091253;28;20033;-68
2021/11/24 00:32:25;;;;;;;25.43;20.33;;;;;;;5.55;100.00;102593.78;2090521;28;20032;-68
2021/11/24 00:33:26;;;;;;;30.67;20.02;;;;;;;5.56;100.00;102597.22;2090397;28;20398;-67
2021/11/24 00:34:26;;;;;;;26.02;20.42;;;;;;;5.55;100.00;102601.53;2090384;28;20025;-67
2021/11/24 00:35:26;;;;;;;22.97;19.87;;;;;;;5.52;100.00;102598.91;2090424;28;20030;-67
2021/11/24 00:36:27;;;;;;;26.83;20.07;;;;;;;5.51;100.00;102597.19;2082104;28;20490;-68
2021/11/24 00:37:29;;;;;;;27.43;19.60;;;;;;;5.50;100.00;102600.63;2090431;28;20170;-67
2021/11/24 00:38:29;;;;;;;28.33;18.10;;;;;;;5.47;100.00;102605.81;2090210;28;20132;-67
2021/11/24 00:39:30;;;;;;;26.37;20.17;;;;;;;5.46;100.00;102604.03;2090388;28;20036;-67
2021/11/24 00:40:30;;;;;;;29.20;21.33;;;;;;;5.45;100.00;102602.31;2090275;28;20333;-68
2021/11/24 00:41:30;;;;;;;27.33;20.93;;;;;;;5.42;100.00;102600.56;2090469;28;20052;-67
2021/11/24 00:42:31;;;;;;;28.80;21.90;;;;;;;5.39;100.00;102606.59;2091060;28;20029;-68
2021/11/24 00:43:31;;;;;;;27.30;20.80;;;;;;;5.36;100.00;102598.81;2090984;28;20025;-68
2021/11/24 00:44:32;;;;;;;27.93;20.97;;;;;;;5.34;100.00;102600.50;2090921;28;20032;-69
2021/11/24 00:45:32;;;;;;;27.87;20.57;;;;;;;5.31;100.00;102595.31;2090992;28;20059;-68
2021/11/24 00:46:33;;;;;;;29.10;21.17;;;;;;;5.31;100.00;102595.31;2091036;28;20029;-69
2021/11/24 00:47:33;;;;;;;30.58;22.23;;;;;;;5.32;100.00;102591.88;2090954;28;20051;-68
2021/11/24 00:48:34;;;;;;;29.57;21.23;;;;;;;5.32;100.00;102588.41;2090997;28;20453;-68
2021/11/24 00:49:39;;;;;;;29.80;21.20;;;;;;;5.32;100.00;102597.06;2090213;28;20033;-68
2021/11/24 00:50:39;;;;;;;30.38;20.98;;;;;;;5.31;100.00;102600.50;2090338;28;20029;-67
2021/11/24 00:51:39;;;;;;;28.67;21.43;;;;;;;5.31;100.00;102600.50;2089701;28;20086;-69
2021/11/24 00:52:40;;;;;;;30.00;21.07;;;;;;;5.32;100.00;102602.22;2090926;28;20036;-67
2021/11/24 00:53:40;;;;;;;28.33;20.77;;;;;;;5.29;100.00;102599.59;2090821;28;20533;-68
2021/11/24 00:54:40;;;;;;;31.00;20.97;;;;;;;5.28;100.00;102596.13;2090852;28;20017;-68
2021/11/24 00:55:40;;;;;;;25.83;19.77;;;;;;;5.29;100.00;102602.19;2090863;28;20025;-68
2021/11/24 00:56:41;;;;;;;29.40;21.60;;;;;;;5.29;100.00;102599.59;2090248;28;20049;-69
2021/11/24 00:57:41;;;;;;;29.70;21.30;;;;;;;5.30;100.00;102598.75;2090285;28;20017;-67
2021/11/24 00:58:42;;;;;;;32.97;22.80;;;;;;;5.30;100.00;102593.56;2090836;28;20072;-67
2021/11/24 00:59:42;;;;;;;29.97;21.30;;;;;;;5.26;100.00;102597.00;2090882;28;20335;-67
2021/11/24 01:00:43;;;;;;;31.50;21.00;;;;;;;5.23;100.00;102604.72;2090889;28;20029;-68
2021/11/24 01:01:43;;;;;;;26.20;20.90;;;;;;;5.21;100.00;102593.50;2090957;28;20405;-67
2021/11/24 01:02:44;;;;;;;30.67;21.00;;;;;;;5.22;100.00;102595.22;2090849;28;20033;-67
2021/11/24 01:03:45;;;;;;;31.98;22.45;;;;;;;5.22;100.00;102600.41;2090941;28;20053;-67
2021/11/24 01:04:45;;;;;;;29.90;21.00;;;;;;;5.22;100.00;102590.94;2090947;28;20031;-67
2021/11/24 01:05:46;;;;;;;29.47;20.30;;;;;;;5.23;100.00;102597.84;2090975;28;20104;-68
2021/11/24 01:06:46;;;;;;;29.50;21.77;;;;;;;5.23;100.00;102591.78;2090934;28;20021;-69
2021/11/24 01:07:47;;;;;;;33.23;22.00;;;;;;;5.24;100.00;102591.78;2090232;28;20105;-68
2021/11/24 01:08:47;;;;;;;28.97;21.73;;;;;;;5.25;100.00;102584.91;2090315;28;20417;-67
2021/11/24 01:09:51;;;;;;;34.67;22.70;;;;;;;5.27;100.00;102588.38;2090840;28;20043;-67
2021/11/24 01:10:52;;;;;;;40.03;22.80;;;;;;;5.27;100.00;102588.38;2090052;28;20713;-67
2021/11/24 01:11:53;;;;;;;33.50;22.10;;;;;;;5.27;100.00;102586.66;2090197;28;20056;-67
2021/11/24 01:12:53;;;;;;;32.83;22.58;;;;;;;5.28;100.00;102580.59;2090736;28;20402;-68
2021/11/24 01:13:54;;;;;;;32.73;20.67;;;;;;;5.28;100.00;102579.75;2090807;28;20071;-68
2021/11/24 01:14:54;;;;;;;31.97;22.57;;;;;;;5.30;100.00;102587.53;2090849;28;20783;-69
2021/11/24 01:15:54;;;;;;;30.30;20.93;;;;;;;5.28;100.00;102587.53;2090073;28;20028;-67
2021/11/24 01:16:55;;;;;;;29.87;20.30;;;;;;;5.29;100.00;102591.84;2090100;28;20021;-68
2021/11/24 01:17:55;;;;;;;26.23;19.97;;;;;;;5.28;100.00;102584.94;2081782;28;20466;-67
2021/11/24 01:18:56;;;;;;;27.37;19.00;;;;;;;5.25;100.00;102582.31;2090094;28;20025;-68
2021/11/24 01:19:56;;;;;;;31.42;21.73;;;;;;;5.22;100.00;102585.75;2090600;28;20020;-69
2021/11/24 01:20:56;;;;;;;29.17;20.33;;;;;;;5.21;100.00;102586.63;2090733;28;20074;-69
2021/11/24 01:21:57;;;;;;;30.77;21.53;;;;;;;5.19;100.00;102584.84;2090703;28;20278;-68
2021/11/24 01:22:57;;;;;;;32.60;23.10;;;;;;;5.19;100.00;102579.66;2090767;28;20025;-68
2021/11/24 01:23:58;;;;;;;31.52;22.05;;;;;;;5.19;100.00;102585.72;2090650;28;20470;-67
2021/11/24 01:24:58;;;;;;;34.00;23.17;;;;;;;5.21;100.00;102583.16;2090754;28;20462;-67
2021/11/24 01:25:59;;;;;;;35.72;22.27;;;;;;;5.22;100.00;102584.88;2090712;28;20029;-68
2021/11/24 01:26:59;;;;;;;33.85;21.15;;;;;;;5.25;100.00;102579.72;2090532;28;20386;-69
2021/11/24 01:27:59;;;;;;;33.63;20.83;;;;;;;5.24;100.00;102581.44;2090636;28;20025;-68
2021/11/24 01:29:00;;;;;;;31.77;21.73;;;;;;;5.24;100.00;102578.00;2090752;28;20036;-68
2021/11/24 01:30:00;;;;;;;36.85;22.70;;;;;;;5.24;100.00;102576.25;2090666;28;20475;-68
2021/11/24 01:31:01;;;;;;;31.10;23.20;;;;;;;5.24;100.00;102573.66;2090636;28;20112;-68
2021/11/24 01:32:01;;;;;;;30.00;22.57;;;;;;;5.24;100.00;102572.81;2090670;28;20279;-68
2021/11/24 01:33:02;;;;;;;33.30;23.83;;;;;;;5.26;100.00;102576.28;2090661;28;20326;-68
2021/11/24 01:34:02;;;;;;;37.33;23.13;;;;;;;5.28;100.00;102574.59;2090490;28;20391;-68
2021/11/24 01:35:05;;;;;;;28.90;22.83;;;;;;;5.27;100.00;102575.44;2090604;28;20017;-68
2021/11/24 01:36:05;;;;;;;31.33;22.00;;;;;;;5.26;100.00;102571.09;2090538;28;20040;-69
2021/11/24 01:37:05;;;;;;;30.83;21.97;;;;;;;5.27;100.00;102570.28;2089837;28;20104;-69
2021/11/24 01:38:06;;;;;;;34.17;23.00;;;;;;;5.27;100.00;102572.84;2089980;28;20021;-68
2021/11/24 01:39:07;;;;;;;30.73;21.92;;;;;;;5.26;100.00;102568.50;2090419;28;20071;-67
2021/11/24 01:40:09;;;;;;;32.40;22.90;;;;;;;5.27;100.00;102570.28;2090565;28;20063;-69
2021/11/24 01:41:09;;;;;;;32.40;22.50;;;;;;;5.27;100.00;102567.69;2090598;28;20679;-68
2021/11/24 01:42:10;;;;;;;34.17;22.27;;;;;;;5.26;100.00;102558.16;2090702;28;20047;-69
2021/11/24 01:43:10;;;;;;;31.20;22.67;;;;;;;5.25;100.00;102559.03;2089844;28;20017;-67
2021/11/24 01:44:25;;;;;;;32.13;22.67;;;;;;;5.25;100.00;102553.84;2089820;28;20474;-68
2021/11/24 01:45:26;;;;;;;34.35;21.35;;;;;;;5.24;100.00;102559.88;2089960;28;20126;-67
2021/11/24 01:46:28;;;;;;;36.00;23.40;;;;;;;5.24;100.00;102549.53;2089792;28;20505;-68
2021/11/24 01:47:28;;;;;;;29.85;21.42;;;;;;;5.25;100.00;102551.25;2089807;28;20033;-68
2021/11/24 01:48:28;;;;;;;32.00;22.03;;;;;;;5.26;100.00;102550.38;2090427;28;20025;-68
2021/11/24 01:49:30;;;;;;;33.67;21.67;;;;;;;5.30;100.00;102559.91;2090421;28;20031;-68
2021/11/24 01:50:31;;;;;;;33.20;22.83;;;;;;;5.30;100.00;102557.31;2090442;28;20021;-68
2021/11/24 01:51:31;;;;;;;32.60;22.25;;;;;;;5.28;100.00;102548.69;2089632;28;20454;-68
2021/11/24 01:52:32;;;;;;;34.37;23.33;;;;;;;5.24;100.00;102552.13;2089874;28;20104;-68
2021/11/24 01:53:32;;;;;;;28.65;21.70;;;;;;;5.22;100.00;102548.63;2089652;28;20032;-68
2021/11/24 01:54:33;;;;;;;29.57;21.03;;;;;;;5.20;100.00;102552.94;2089797;28;20184;-68
2021/11/24 01:55:33;;;;;;;33.05;22.05;;;;;;;5.19;100.00;102554.66;2090605;28;20045;-67
2021/11/24 01:56:33;;;;;;;30.35;21.83;;;;;;;5.19;100.00;102554.66;2090487;28;20187;-68
2021/11/24 01:57:34;;;;;;;33.23;23.70;;;;;;;5.18;100.00;102547.75;2089787;28;20076;-69
2021/11/24 01:58:36;;;;;;;29.05;21.95;;;;;;;5.16;100.00;102552.03;2089767;28;20478;-68
2021/11/24 01:59:36;;;;;;;31.48;21.13;;;;;;;5.11;100.00;102552.03;2090361;28;20035;-69
2021/11/24 02:00:36;;;;;;;31.23;22.70;;;;;;;5.09;100.00;102548.53;2089800;28;20494;-69
2021/11/24 02:01:38;;;;;;;35.87;22.37;;;;;;;5.09;100.00;102553.72;2089803;28;20033;-68
2021/11/24 02:02:39;;;;;;;31.58;21.48;;;;;;;5.09;100.00;102548.53;2089907;28;20024;-69
2021/11/24 02:03:39;;;;;;;34.33;22.53;;;;;;;5.08;100.00;102549.41;2090333;28;20383;-68
2021/11/24 02:04:39;;;;;;;28.53;20.33;;;;;;;5.08;100.00;102546.81;2090278;28;20483;-69
2021/11/24 02:05:40;;;;;;;35.10;22.23;;;;;;;5.09;100.00;102542.50;2090368;28;20070;-68
2021/11/24 02:06:41;;;;;;;31.43;21.93;;;;;;;5.09;100.00;102543.38;2090282;28;20094;-67
2021/11/24 02:07:42;;;;;;;32.30;22.50;;;;;;;5.08;100.00;102544.22;2090380;28;20035;-68
2021/11/24 02:08:42;;;;;;;29.70;22.17;;;;;;;5.08;100.00;102533.88;2089714;28;20021;-68
2021/11/24 02:09:43;;;;;;;32.50;22.03;;;;;;;5.10;100.00;102545.09;2081402;28;20029;-69
2021/11/24 02:10:43;;;;;;;33.92;23.80;;;;;;;5.11;100.00;102543.38;2089831;28;20051;-68
2021/11/24 02:11:44;;;;;;;31.93;22.50;;;;;;;5.11;100.00;102546.84;2090330;28;20536;-68
2021/11/24 02:12:45;;;;;;;34.35;21.52;;;;;;;5.11;100.00;102536.50;2090289;28;20013;-69
2021/11/24 02:13:45;;;;;;;30.20;22.50;;;;;;;5.09;100.00;102538.19;2090234;28;20029;-69
2021/11/24 02:14:46;;;;;;;30.33;21.70;;;;;;;5.05;100.00;102541.59;2090271;28;20028;-69
2021/11/24 02:15:46;;;;;;;30.50;20.87;;;;;;;5.03;100.00;102539.00;2090258;28;20029;-69
2021/11/24 02:16:50;;;;;;;33.13;21.73;;;;;;;5.04;100.00;102537.31;2090214;28;20017;-68
2021/11/24 02:17:51;;;;;;;31.10;21.65;;;;;;;5.04;100.00;102532.13;2090282;28;20096;-69
2021/11/24 02:18:51;;;;;;;32.20;21.42;;;;;;;5.05;100.00;102539.03;2089562;28;20059;-69
2021/11/24 02:19:52;;;;;;;26.67;20.33;;;;;;;5.01;100.00;102539.84;2089617;28;20418;-68
2021/11/24 02:20:52;;;;;;;31.63;21.27;;;;;;;4.99;100.00;102533.78;2089724;28;20036;-68
2021/11/24 02:21:53;;;;;;;29.17;20.60;;;;;;;4.98;100.00;102532.06;2090258;28;20017;-69
2021/11/24 02:22:53;;;;;;;30.60;21.88;;;;;;;4.96;100.00;102538.97;2090387;28;20385;-69
2021/11/24 02:23:53;;;;;;;32.53;21.83;;;;;;;4.96;100.00;102531.19;2089757;28;20064;-69
2021/11/24 02:24:53;;;;;;;30.33;21.70;;;;;;;4.96;100.00;102531.19;2089685;28;20028;-69
2021/11/24 02:25:54;;;;;;;30.13;20.60;;;;;;;4.96;100.00;102526.88;2090316;28;20028;-68
2021/11/24 02:26:54;;;;;;;34.53;21.53;;;;;;;4.96;100.00;102533.78;2090181;28;20024;-67
2021/11/24 02:27:55;;;;;;;28.95;21.33;;;;;;;4.94;100.00;102531.19;2089303;28;20116;-68
2021/11/24 02:28:55;;;;;;;35.07;22.07;;;;;;;4.97;100.00;102522.56;2089539;28;20385;-68
2021/11/24 02:29:55;;;;;;;29.73;21.67;;;;;;;4.98;100.00;102530.34;2090185;28;20032;-67
2021/11/24 02:30:56;;;;;;;32.50;22.70;;;;;;;4.96;100.00;102524.28;2090242;28;20032;-68
2021/11/24 02:31:59;;;;;;;36.00;22.97;;;;;;;4.94;100.00;102523.41;2089542;28;20033;-69
2021/11/24 02:32:59;;;;;;;31.30;22.00;;;;;;;4.93;100.00;102520.81;2089560;28;20344;-68
2021/11/24 02:33:59;;;;;;;29.27;21.90;;;;;;;4.94;100.00;102517.38;2089574;28;20055;-69
2021/11/24 02:35:00;;;;;;;31.10;22.33;;;;;;;4.94;100.00;102517.38;2090141;28;20291;-68
2021/11/24 02:36:00;;;;;;;31.70;22.27;;;;;;;4.94;100.00;102512.19;2090186;28;20386;-68
2021/11/24 02:37:01;;;;;;;34.50;21.93;;;;;;;4.92;100.00;102516.50;2090261;28;20036;-68
2021/11/24 02:38:03;;;;;;;35.55;22.20;;;;;;;4.89;100.00;102518.19;2089597;28;20494;-68
2021/11/24 02:39:04;;;;;;;35.92;21.73;;;;;;;4.89;100.00;102520.78;2089463;28;20037;-68
2021/11/24 02:40:05;;;;;;;31.35;21.15;;;;;;;4.90;100.00;102517.34;2089444;28;20021;-67
2021/11/24 02:41:05;;;;;;;27.67;18.17;;;;;;;4.90;100.00;102514.75;2090058;28;20128;-67
2021/11/24 02:42:06;;;;;;;29.50;20.47;;;;;;;4.90;100.00;102514.75;2090141;28;20071;-68
2021/11/24 02:43:06;;;;;;;25.42;20.80;;;;;;;4.90;100.00;102511.31;2089426;28;20032;-68
2021/11/24 02:44:24;;;;;;;27.40;20.47;;;;;;;4.92;100.00;102498.41;2089453;28;20040;-68
2021/11/24 02:45:26;;;;;;;27.33;19.30;;;;;;;4.93;100.00;102510.47;2090039;28;20163;-68
2021/11/24 02:46:26;;;;;;;28.73;20.98;;;;;;;4.91;100.00;102507.88;2090138;28;20017;-67
2021/11/24 02:47:26;;;;;;;26.77;19.33;;;;;;;4.90;100.00;102501.81;2090158;28;20393;-68
2021/11/24 02:48:27;;;;;;;28.13;20.00;;;;;;;4.92;100.00;102499.25;2090065;28;20051;-67
2021/11/24 02:49:27;;;;;;;28.83;19.83;;;;;;;4.92;100.00;102494.06;2090148;28;20024;-67
2021/11/24 02:50:28;;;;;;;28.97;21.30;;;;;;;4.93;100.00;102502.69;2090106;28;20106;-67
2021/11/24 02:51:28;;;;;;;25.73;20.13;;;;;;;4.94;100.00;102492.38;2090077;28;20055;-68
2021/11/24 02:52:28;;;;;;;33.40;19.97;;;;;;;4.97;100.00;102501.88;2090186;28;20021;-68
2021/11/24 02:53:31;;;;;;;28.77;20.77;;;;;;;4.97;100.00;102497.56;2089329;28;20025;-67
2021/11/24 02:54:32;;;;;;;29.02;20.73;;;;;;;4.97;100.00;102495.00;2089334;28;20037;-68
2021/11/24 02:55:32;;;;;;;27.23;20.10;;;;;;;5.00;100.00;102499.31;2081293;28;20018;-68
2021/11/24 02:56:33;;;;;;;28.70;20.90;;;;;;;5.01;100.00;102495.88;2089421;28;20029;-68
2021/11/24 02:57:37;;;;;;;27.42;19.77;;;;;;;5.03;100.00;102494.13;2090155;28;20487;-68
2021/11/24 02:58:37;;;;;;;29.02;20.75;;;;;;;5.04;100.00;102493.31;2090016;28;20020;-68
2021/11/24 02:59:37;;;;;;;26.87;20.33;;;;;;;5.04;100.00;102493.31;2090077;28;20033;-68
2021/11/24 03:00:38;;;;;;;27.90;19.83;;;;;;;5.04;100.00;102493.31;2090028;28;20033;-67
2021/11/24 03:01:39;;;;;;;23.67;19.00;;;;;;;5.08;100.00;102494.19;2089990;28;20449;-68
2021/11/24 03:02:40;;;;;;;26.25;19.33;;;;;;;5.12;100.00;102489.03;2090070;28;20115;-69
2021/11/24 03:03:40;;;;;;;26.20;20.20;;;;;;;5.13;100.00;102493.38;2089967;28;20382;-68
2021/11/24 03:04:40;;;;;;;28.33;20.83;;;;;;;5.13;100.00;102488.19;2090002;28;20047;-67
2021/11/24 03:05:41;;;;;;;29.52;20.83;;;;;;;5.13;100.00;102489.91;2090115;28;20405;-68
2021/11/24 03:06:41;;;;;;;26.63;20.07;;;;;;;5.13;100.00;102482.13;2089989;28;20021;-68
2021/11/24 03:07:41;;;;;;;33.07;20.33;;;;;;;5.13;100.00;102488.19;2090095;28;20458;-68
2021/11/24 03:08:42;;;;;;;26.43;19.30;;;;;;;5.14;100.00;102482.13;2090082;28;20021;-67
2021/11/24 03:09:42;;;;;;;23.07;17.53;;;;;;;5.15;100.00;102483.03;2090064;28;20287;-68
2021/11/24 03:10:43;;;;;;;20.97;17.87;;;;;;;5.15;100.00;102476.13;2090056;28;20099;-68
2021/11/24 03:11:43;;;;;;;26.50;19.30;;;;;;;5.18;100.00;102472.69;2089326;28;20013;-67
2021/11/24 03:12:44;;;;;;;23.43;20.27;;;;;;;5.23;100.00;102475.28;2089426;28;20033;-69
2021/11/24 03:13:44;;;;;;;28.50;20.70;;;;;;;5.24;100.00;102464.09;2089890;28;20033;-67
2021/11/24 03:14:44;;;;;;;27.07;20.00;;;;;;;5.21;100.00;102461.50;2090208;28;20028;-68
2021/11/24 03:15:45;;;;;;;27.43;20.20;;;;;;;5.20;100.00;102462.34;2091765;28;20040;-68
2021/11/24 03:16:45;;;;;;;28.07;20.40;;;;;;;5.20;100.00;102464.94;2091794;28;20104;-68
2021/11/24 03:17:46;;;;;;;26.45;19.33;;;;;;;5.20;100.00;102462.34;2091778;28;20462;-68
2021/11/24 03:18:46;;;;;;;25.20;19.07;;;;;;;5.18;100.00;102454.56;2091770;28;20444;-68
2021/11/24 03:19:48;;;;;;;31.67;20.87;;;;;;;5.17;100.00;102451.97;2091708;28;20029;-68
2021/11/24 03:20:48;;;;;;;31.27;21.50;;;;;;;5.17;100.00;102457.16;2091742;28;20021;-68
2021/11/24 03:21:48;;;;;;;29.40;22.00;;;;;;;5.17;100.00;102446.78;2091737;28;20028;-68
2021/11/24 03:22:50;;;;;;;26.23;21.60;;;;;;;5.18;100.00;102449.41;2091739;28;20078;-68
2021/11/24 03:23:50;;;;;;;30.88;21.80;;;;;;;5.18;100.00;102443.34;2091099;28;20013;-68
2021/11/24 03:24:57;;;;;;;33.63;23.30;;;;;;;5.18;100.00;102448.53;2091002;28;20363;-68
2021/11/24 03:25:58;;;;;;;33.30;21.38;;;;;;;5.16;100.00;102440.75;2091135;28;20449;-68
2021/11/24 03:26:58;;;;;;;28.83;21.23;;;;;;;5.13;100.00;102449.38;2091500;28;20037;-68
2021/11/24 03:27:58;;;;;;;26.80;19.63;;;;;;;5.12;100.00;102445.06;2091396;28;20067;-68
2021/11/24 03:28:59;;;;;;;27.97;21.57;;;;;;;5.11;100.00;102443.31;2091597;28;20040;-68
2021/11/24 03:30:03;;;;;;;26.17;20.02;;;;;;;5.13;100.00;102443.31;2091636;28;20025;-67
2021/11/24 03:31:03;;;;;;;25.98;20.70;;;;;;;5.12;100.00;102439.88;2091558;28;20154;-68
2021/11/24 03:32:04;;;;;;;27.87;20.50;;;;;;;5.11;100.00;102432.97;2091711;28;20025;-68
2021/11/24 03:33:05;;;;;;;31.45;21.73;;;;;;;5.09;100.00;102442.44;2090978;28;20390;-67
2021/11/24 03:34:06;;;;;;;32.03;22.40;;;;;;;5.07;100.00;102433.81;2082629;28;20024;-67
2021/11/24 03:35:07;;;;;;;26.30;20.48;;;;;;;5.06;100.00;102433.81;2091038;28;20024;-68
2021/11/24 03:36:08;;;;;;;33.28;21.45;;;;;;;5.04;100.00;102431.19;2091566;28;20033;-67
2021/11/24 03:37:08;;;;;;;26.27;21.70;;;;;;;5.06;100.00;102433.81;2091630;28;20021;-68
2021/11/24 03:38:08;;;;;;;30.17;20.80;;;;;;;5.07;100.00;102430.34;2091720;28;20029;-68
2021/11/24 03:39:09;;;;;;;24.60;21.17;;;;;;;5.08;100.00;102434.66;2091572;28;20017;-68
2021/11/24 03:40:11;;;;;;;25.07;20.07;;;;;;;5.06;100.00;102432.06;2091537;28;20075;-69
2021/11/24 03:41:11;;;;;;;28.55;21.83;;;;;;;5.03;100.00;102429.44;2091542;28;20075;-68
2021/11/24 03:42:13;;;;;;;27.63;22.20;;;;;;;5.01;100.00;102426.00;2090898;28;20482;-68
2021/11/24 03:43:13;;;;;;;29.50;21.48;;;;;;;5.01;100.00;102421.69;2090858;28;20482;-68
2021/11/24 03:44:15;;;;;;;28.00;21.10;;;;;;;5.02;100.00;102412.19;2090880;28;20072;-68
2021/11/24 03:45:18;;;;;;;31.02;21.10;;;;;;;5.04;100.00;102423.44;2082727;28;20116;-68
2021/11/24 03:46:19;;;;;;;29.10;22.60;;;;;;;5.06;100.00;102419.13;2091008;28;20406;-68
2021/11/24 03:47:19;;;;;;;30.80;24.57;;;;;;;5.07;100.00;102418.28;2090885;28;20024;-68
2021/11/24 03:48:19;;;;;;;29.27;21.93;;;;;;;5.09;100.00;102411.38;2090965;28;20044;-69
2021/11/24 03:49:21;;;;;;;30.67;20.60;;;;;;;5.12;100.00;102418.28;2091564;28;20021;-68
2021/11/24 03:50:22;;;;;;;29.77;21.05;;;;;;;5.11;100.00;102417.44;2091569;28;20538;-68
2021/11/24 03:51:23;;;;;;;28.25;23.35;;;;;;;5.14;100.00;102414.00;2091486;28;20474;-69
2021/11/24 03:52:23;;;;;;;31.70;24.67;;;;;;;5.15;100.00;102414.03;2091498;28;20032;-68
2021/11/24 03:53:23;;;;;;;29.50;22.53;;;;;;;5.18;100.00;102414.88;2091460;28;20032;-68
2021/11/24 03:54:24;;;;;;;31.13;22.13;;;;;;;5.17;100.00;102411.44;2091476;28;20032;-68
2021/11/24 03:55:25;;;;;;;32.10;23.23;;;;;;;5.19;100.00;102408.84;2091425;28;20588;-68
2021/11/24 03:56:25;;;;;;;26.27;22.20;;;;;;;5.21;100.00;102407.13;2090776;28;20767;-67
2021/11/24 03:57:25;;;;;;;32.70;23.13;;;;;;;5.22;100.00;102411.44;2090909;28;20025;-67
2021/11/24 03:58:25;;;;;;;37.67;23.47;;;;;;;5.23;100.00;102408.00;2091736;28;20078;-68
2021/11/24 03:59:26;;;;;;;27.63;22.00;;;;;;;5.23;100.00;102411.44;2090962;28;20033;-68
2021/11/24 04:00:27;;;;;;;32.63;23.10;;;;;;;5.21;100.00;102413.19;2091034;28;20044;-67
2021/11/24 04:01:27;;;;;;;34.08;24.10;;;;;;;5.22;100.00;102409.72;2090993;28;20033;-68
2021/11/24 04:02:28;;;;;;;31.37;23.57;;;;;;;5.21;100.00;102413.19;2091804;28;20106;-68
2021/11/24 04:03:28;;;;;;;35.10;25.73;;;;;;;5.22;100.00;102414.03;2091511;28;20482;-68
2021/11/24 04:04:28;;;;;;;34.33;25.40;;;;;;;5.24;100.00;102407.16;2091337;28;20074;-67
2021/11/24 04:05:29;;;;;;;33.50;24.83;;;;;;;5.23;100.00;102406.28;2090697;28;20028;-68
2021/11/24 04:06:29;;;;;;;34.23;25.33;;;;;;;5.25;100.00;102411.47;2090801;28;20429;-68
2021/11/24 04:07:29;;;;;;;39.13;26.13;;;;;;;5.25;100.00;102403.69;2091359;28;20031;-68
2021/11/24 04:08:30;;;;;;;32.93;25.80;;;;;;;5.24;100.00;102401.97;2091384;28;20021;-67
2021/11/24 04:09:30;;;;;;;33.97;24.70;;;;;;;5.25;100.00;102399.41;2091317;28;20393;-67
2021/11/24 04:10:30;;;;;;;36.90;27.40;;;;;;;5.27;100.00;102405.44;2091397;28;20107;-68
2021/11/24 04:11:31;;;;;;;40.13;27.13;;;;;;;5.28;100.00;102403.72;2091371;28;20037;-68
2021/11/24 04:12:31;;;;;;;44.60;29.17;;;;;;;5.30;100.00;102407.16;2091270;28;20027;-69
2021/11/24 04:13:32;;;;;;;39.27;28.53;;;;;;;5.29;100.00;102400.25;2091248;28;20040;-69
2021/11/24 04:14:32;;;;;;;41.08;29.23;;;;;;;5.30;100.00;102402.00;2091288;28;20029;-69
2021/11/24 04:15:32;;;;;;;44.33;27.67;;;;;;;5.32;100.00;102402.00;2091333;28;20032;-68
2021/11/24 04:16:33;;;;;;;39.70;26.97;;;;;;;5.30;100.00;102409.75;2091328;28;20087;-68
2021/11/24 04:17:33;;;;;;;39.47;27.03;;;;;;;5.31;100.00;102403.75;2091184;28;20052;-67
2021/11/24 04:18:33;;;;;;;38.90;27.60;;;;;;;5.33;100.00;102396.84;2091305;28;20154;-67
2021/11/24 04:19:34;;;;;;;43.80;29.37;;;;;;;5.33;100.00;102396.84;2091210;28;20037;-68
2021/11/24 04:20:34;;;;;;;34.27;25.20;;;;;;;5.32;100.00;102395.09;2091192;28;20051;-68
2021/11/24 04:21:35;;;;;;;38.92;27.00;;;;;;;5.35;100.00;102389.06;2091149;28;20575;-68
2021/11/24 04:22:35;;;;;;;41.30;27.90;;;;;;;5.37;100.00;102393.41;2091186;28;20102;-68
2021/11/24 04:23:35;;;;;;;46.20;28.57;;;;;;;5.37;100.00;102390.81;2091144;28;20025;-69
2021/11/24 04:24:37;;;;;;;43.53;29.80;;;;;;;5.38;100.00;102383.91;2091122;28;20029;-68
2021/11/24 04:25:37;;;;;;;39.17;26.35;;;;;;;5.36;100.00;102386.50;2090915;28;20032;-68
2021/11/24 04:26:37;;;;;;;44.93;28.80;;;;;;;5.37;100.00;102383.03;2091137;28;20021;-68
2021/11/24 04:27:38;;;;;;;43.43;28.67;;;;;;;5.38;100.00;102384.75;2090299;28;20052;-68
2021/11/24 04:28:39;;;;;;;39.00;25.67;;;;;;;5.39;100.00;102389.09;2090538;28;20025;-70
2021/11/24 04:29:40;;;;;;;44.45;28.27;;;;;;;5.39;100.00;102391.69;2090351;28;20031;-68
2021/11/24 04:30:41;;;;;;;39.65;26.02;;;;;;;5.41;100.00;102389.13;2090438;28;20127;-68
2021/11/24 04:31:41;;;;;;;43.47;31.67;;;;;;;5.39;100.00;102383.94;2091102;28;20029;-68
2021/11/24 04:32:41;;;;;;;36.13;26.40;;;;;;;5.39;100.00;102380.47;2091064;28;20053;-67
2021/11/24 04:33:42;;;;;;;43.47;29.00;;;;;;;5.37;100.00;102380.44;2091080;28;20029;-68
2021/11/24 04:34:42;;;;;;;44.20;28.60;;;;;;;5.39;100.00;102381.34;2091044;28;20024;-67
2021/11/24 04:35:43;;;;;;;45.63;29.83;;;;;;;5.39;100.00;102376.16;2091108;28;20044;-68